Time;durP1;ratioP1;P1;durP2;ratioP2;P2;SDS_P1;SDS_P2;PMS_P1;PMS_P2;Temp;Humidity;BMP_temperature;BMP_pressure;BME280_temperature;BME280_humidity;BME280_pressure;Samples;Min_cycle;Max_cycle;Signal;HPM_P1;HPM_P2
2023/08/07 00:01:08;;;;;;;2.30;1.90;;;;;;;;;;4993987;28;20222;-82
2023/08/07 00:03:35;;;;;;;4.73;2.20;;;;;;;;;;4975894;28;20227;-82
2023/08/07 00:06:01;;;;;;;3.63;2.00;;;;;;;;;;4990569;28;20187;-82
2023/08/07 00:08:27;;;;;;;4.67;2.00;;;;;;;;;;5007540;28;20196;-82
2023/08/07 00:11:04;;;;;;;5.60;2.20;;;;;;;;;;4992346;28;20643;-81
2023/08/07 00:13:30;;;;;;;5.90;2.00;;;;;;;;;;4991605;28;20560;-81
2023/08/07 00:15:56;;;;;;;5.17;2.17;;;;;;;;;;4957979;28;20199;-82
2023/08/07 00:18:22;;;;;;;4.57;2.13;;;;;;;;;;4990703;28;20199;-82
2023/08/07 00:20:48;;;;;;;4.70;2.27;;;;;;;;;;4987824;28;20215;-81
2023/08/07 00:23:15;;;;;;;4.93;2.30;;;;;;;;;;5040914;22;20244;-78
2023/08/07 00:25:41;;;;;;;6.23;2.40;;;;;;;;;;5027242;28;20183;-77
2023/08/07 00:28:07;;;;;;;5.63;2.57;;;;;;;;;;5028390;28;20186;-78
2023/08/07 00:30:33;;;;;;;5.37;2.80;;;;;;;;;;5039056;28;20182;-77
2023/08/07 00:32:59;;;;;;;7.00;2.93;;;;;;;;;;5023697;28;20688;-77
2023/08/07 00:35:25;;;;;;;5.43;2.37;;;;;;;;;;5026169;28;20664;-77
2023/08/07 00:37:52;;;;;;;4.33;2.60;;;;;;;;;;5022804;28;20182;-77
2023/08/07 00:40:18;;;;;;;5.50;2.53;;;;;;;;;;5019725;28;20202;-77
2023/08/07 00:42:44;;;;;;;6.43;2.60;;;;;;;;;;5022085;28;20554;-77
2023/08/07 00:45:10;;;;;;;3.87;2.30;;;;;;;;;;5018761;28;20186;-77
2023/08/07 00:47:38;;;;;;;4.43;2.50;;;;;;;;;;5007222;28;20882;-77
2023/08/07 00:50:04;;;;;;;5.50;2.47;;;;;;;;;;5019795;28;20191;-77
2023/08/07 00:52:31;;;;;;;5.37;2.40;;;;;;;;;;5009258;28;20211;-77
2023/08/07 00:54:57;;;;;;;4.10;2.37;;;;;;;;;;5020566;28;20564;-78
2023/08/07 00:57:24;;;;;;;4.83;2.47;;;;;;;;;;5024250;28;20190;-78
2023/08/07 00:59:51;;;;;;;5.07;2.40;;;;;;;;;;5026293;28;20198;-79
2023/08/07 01:02:18;;;;;;;5.43;2.30;;;;;;;;;;5019866;28;20226;-77
2023/08/07 01:04:47;;;;;;;5.33;2.50;;;;;;;;;;5021555;28;20294;-78
2023/08/07 01:07:13;;;;;;;6.13;2.30;;;;;;;;;;5004202;28;20182;-77
2023/08/07 01:09:39;;;;;;;3.30;2.07;;;;;;;;;;5014778;28;20183;-77
2023/08/07 01:12:15;;;;;;;7.27;2.40;;;;;;;;;;5019357;28;20317;-78
2023/08/07 01:15:02;;;;;;;4.33;2.37;;;;;;;;;;5021098;28;20183;-77
2023/08/07 01:17:29;;;;;;;7.07;2.53;;;;;;;;;;5020166;28;20682;-77
2023/08/07 01:19:55;;;;;;;5.63;2.57;;;;;;;;;;5019161;28;20217;-78
2023/08/07 01:22:22;;;;;;;6.23;2.37;;;;;;;;;;5016613;28;20211;-77
2023/08/07 01:24:49;;;;;;;5.13;2.17;;;;;;;;;;5022505;28;21567;-78
2023/08/07 01:27:19;;;;;;;6.50;2.60;;;;;;;;;;5023153;28;20236;-77
2023/08/07 01:30:01;;;;;;;5.53;2.50;;;;;;;;;;5027038;28;20221;-78
2023/08/07 01:32:42;;;;;;;5.03;2.60;;;;;;;;;;5026049;28;20206;-77
2023/08/07 01:35:11;;;;;;;4.97;2.33;;;;;;;;;;5024440;28;20222;-80
2023/08/07 01:37:40;;;;;;;5.63;2.20;;;;;;;;;;5002444;28;20254;-78
2023/08/07 01:40:07;;;;;;;4.27;2.00;;;;;;;;;;5027744;28;20213;-79
2023/08/07 01:42:34;;;;;;;8.07;2.40;;;;;;;;;;5028535;28;20218;-80
2023/08/07 01:45:00;;;;;;;4.13;2.20;;;;;;;;;;5018533;28;20182;-82
2023/08/07 01:47:26;;;;;;;5.10;2.30;;;;;;;;;;5016904;28;20234;-82
2023/08/07 01:49:52;;;;;;;3.73;1.97;;;;;;;;;;5030146;28;20182;-82
2023/08/07 01:52:19;;;;;;;6.50;2.50;;;;;;;;;;5012972;28;20206;-82
2023/08/07 01:54:45;;;;;;;4.80;2.23;;;;;;;;;;5023710;28;20191;-82
2023/08/07 01:57:11;;;;;;;6.50;2.60;;;;;;;;;;5024843;28;20277;-82
2023/08/07 01:59:37;;;;;;;7.60;2.70;;;;;;;;;;4995658;28;20211;-82
2023/08/07 02:02:04;;;;;;;5.87;2.30;;;;;;;;;;5018118;28;20184;-82
2023/08/07 02:04:30;;;;;;;5.97;2.30;;;;;;;;;;5008820;28;20182;-81
2023/08/07 02:06:56;;;;;;;5.23;2.30;;;;;;;;;;5008706;28;20187;-82
2023/08/07 02:09:23;;;;;;;6.87;2.53;;;;;;;;;;4993627;28;20198;-82
2023/08/07 02:11:50;;;;;;;7.30;2.57;;;;;;;;;;5030812;28;20597;-82
2023/08/07 02:14:16;;;;;;;6.77;2.40;;;;;;;;;;5014050;28;20186;-83
2023/08/07 02:16:42;;;;;;;6.57;2.40;;;;;;;;;;5001740;28;20179;-82
2023/08/07 02:19:08;;;;;;;5.93;2.53;;;;;;;;;;5003017;28;20176;-82
2023/08/07 02:21:34;;;;;;;6.90;2.73;;;;;;;;;;5024823;28;20272;-82
2023/08/07 02:24:00;;;;;;;4.43;2.40;;;;;;;;;;5021145;28;20309;-82
2023/08/07 02:26:26;;;;;;;5.33;2.40;;;;;;;;;;5026837;28;20181;-82
2023/08/07 02:28:53;;;;;;;5.43;2.20;;;;;;;;;;4993578;28;20183;-82
2023/08/07 02:31:19;;;;;;;7.80;2.63;;;;;;;;;;4994447;28;20201;-82
2023/08/07 02:33:45;;;;;;;7.83;2.30;;;;;;;;;;5012822;28;20222;-82
2023/08/07 02:36:11;;;;;;;5.90;2.30;;;;;;;;;;5011815;28;20645;-82
2023/08/07 02:38:38;;;;;;;4.93;2.20;;;;;;;;;;5029227;28;20186;-82
2023/08/07 02:41:04;;;;;;;6.07;2.57;;;;;;;;;;5009354;28;20219;-82
2023/08/07 02:43:32;;;;;;;4.67;2.20;;;;;;;;;;5004612;28;20204;-82
2023/08/07 02:46:02;;;;;;;6.73;2.60;;;;;;;;;;5027438;28;20272;-82
2023/08/07 02:48:28;;;;;;;5.27;2.40;;;;;;;;;;5023246;28;20230;-82
2023/08/07 02:50:54;;;;;;;8.23;2.40;;;;;;;;;;5003727;28;20195;-82
2023/08/07 02:53:20;;;;;;;5.93;2.57;;;;;;;;;;5024304;28;20273;-82
2023/08/07 02:55:46;;;;;;;3.63;2.20;;;;;;;;;;5012170;28;20182;-82
2023/08/07 02:58:12;;;;;;;6.17;2.00;;;;;;;;;;5029982;28;20190;-82
2023/08/07 03:00:39;;;;;;;4.53;2.20;;;;;;;;;;5029802;28;20240;-82
2023/08/07 03:03:05;;;;;;;5.80;2.40;;;;;;;;;;5029210;28;20660;-82
2023/08/07 03:05:31;;;;;;;5.33;2.40;;;;;;;;;;5024941;28;20175;-82
2023/08/07 03:07:57;;;;;;;5.60;2.10;;;;;;;;;;5023530;28;20182;-82
2023/08/07 03:10:23;;;;;;;4.80;2.30;;;;;;;;;;5030499;28;20570;-82
2023/08/07 03:12:49;;;;;;;5.93;2.47;;;;;;;;;;5020225;28;20203;-82
2023/08/07 03:15:16;;;;;;;4.73;2.50;;;;;;;;;;5013390;28;20212;-82
2023/08/07 03:17:42;;;;;;;6.50;2.67;;;;;;;;;;5027342;28;20258;-82
2023/08/07 03:20:09;;;;;;;5.70;2.30;;;;;;;;;;5012168;28;20256;-83
2023/08/07 03:22:35;;;;;;;6.93;2.40;;;;;;;;;;4991261;28;20386;-82
2023/08/07 03:25:01;;;;;;;8.07;2.73;;;;;;;;;;5004007;28;20209;-82
2023/08/07 03:27:28;;;;;;;6.67;2.50;;;;;;;;;;5009693;28;20233;-82
2023/08/07 03:29:54;;;;;;;7.07;2.33;;;;;;;;;;4987664;28;20566;-82
2023/08/07 03:32:24;;;;;;;6.13;2.53;;;;;;;;;;4991327;28;20429;-82
2023/08/07 03:34:50;;;;;;;5.63;2.20;;;;;;;;;;5025304;28;20570;-82
2023/08/07 03:37:16;;;;;;;7.10;2.60;;;;;;;;;;5024455;28;20206;-82
2023/08/07 03:39:47;;;;;;;5.83;2.37;;;;;;;;;;5003910;28;20588;-81
2023/08/07 03:42:15;;;;;;;7.23;2.40;;;;;;;;;;5007437;28;20630;-82
2023/08/07 03:44:43;;;;;;;5.37;2.30;;;;;;;;;;5001507;28;20653;-82
2023/08/07 03:47:09;;;;;;;4.27;2.27;;;;;;;;;;5008583;28;20213;-82
2023/08/07 03:49:36;;;;;;;5.93;2.30;;;;;;;;;;5011575;28;20178;-82
2023/08/07 03:52:04;;;;;;;5.93;2.33;;;;;;;;;;5012645;28;20190;-82
2023/08/07 03:54:31;;;;;;;7.50;2.57;;;;;;;;;;4987728;28;20610;-82
2023/08/07 03:56:58;;;;;;;5.77;2.20;;;;;;;;;;5023649;28;20221;-82
2023/08/07 03:59:24;;;;;;;5.57;2.77;;;;;;;;;;5002095;28;20230;-82
2023/08/07 04:01:50;;;;;;;6.53;2.47;;;;;;;;;;5027918;28;20721;-82
2023/08/07 04:04:16;;;;;;;5.67;2.40;;;;;;;;;;5028975;28;21170;-82
2023/08/07 04:06:43;;;;;;;4.00;2.30;;;;;;;;;;4983870;28;20195;-82
2023/08/07 04:09:10;;;;;;;6.93;2.53;;;;;;;;;;5006471;28;20186;-82
2023/08/07 04:11:36;;;;;;;4.77;2.37;;;;;;;;;;5028964;28;20178;-82
2023/08/07 04:14:04;;;;;;;4.13;2.40;;;;;;;;;;5007244;28;20636;-82
2023/08/07 04:16:31;;;;;;;6.47;2.40;;;;;;;;;;5008769;28;20182;-82
2023/08/07 04:18:57;;;;;;;5.13;2.37;;;;;;;;;;5029182;28;20191;-82
2023/08/07 04:21:23;;;;;;;6.83;2.50;;;;;;;;;;5022384;28;20978;-82
2023/08/07 04:23:49;;;;;;;3.97;2.13;;;;;;;;;;5022778;28;20214;-82
2023/08/07 04:26:16;;;;;;;3.63;2.30;;;;;;;;;;5018671;28;20210;-81
2023/08/07 04:28:42;;;;;;;4.20;2.00;;;;;;;;;;5028563;28;20182;-82
2023/08/07 04:31:08;;;;;;;2.83;2.03;;;;;;;;;;5022825;28;20550;-82
2023/08/07 04:33:36;;;;;;;3.43;2.27;;;;;;;;;;5028126;28;20212;-82
2023/08/07 04:36:02;;;;;;;6.57;2.50;;;;;;;;;;5011331;28;20190;-82
2023/08/07 04:38:28;;;;;;;4.90;2.30;;;;;;;;;;4989087;28;20195;-82
2023/08/07 04:40:54;;;;;;;5.23;2.37;;;;;;;;;;5017104;28;20202;-82
2023/08/07 04:43:21;;;;;;;9.03;2.33;;;;;;;;;;5011200;28;20209;-82
2023/08/07 04:45:47;;;;;;;5.60;2.43;;;;;;;;;;4988776;28;20188;-82
2023/08/07 04:48:13;;;;;;;5.63;2.50;;;;;;;;;;5027496;28;20178;-82
2023/08/07 04:50:40;;;;;;;5.80;2.40;;;;;;;;;;5024688;28;20175;-82
2023/08/07 04:53:06;;;;;;;6.83;2.70;;;;;;;;;;5022244;28;20550;-82
2023/08/07 04:55:33;;;;;;;9.20;2.80;;;;;;;;;;5022239;28;20185;-82
2023/08/07 04:57:59;;;;;;;5.97;2.47;;;;;;;;;;5020296;28;20232;-82
2023/08/07 05:00:25;;;;;;;5.20;2.40;;;;;;;;;;5007605;28;20207;-82
2023/08/07 05:02:51;;;;;;;4.40;2.40;;;;;;;;;;5025076;28;20222;-82
2023/08/07 05:05:20;;;;;;;6.60;2.63;;;;;;;;;;5013818;28;20580;-82
2023/08/07 05:07:47;;;;;;;6.23;3.20;;;;;;;;;;5028128;28;20233;-82
2023/08/07 05:10:13;;;;;;;5.53;2.43;;;;;;;;;;5025054;28;20183;-81
2023/08/07 05:12:39;;;;;;;5.63;2.50;;;;;;;;;;5008442;28;20782;-81
2023/08/07 05:15:06;;;;;;;5.00;2.60;;;;;;;;;;5012498;28;20560;-77
2023/08/07 05:17:32;;;;;;;6.70;2.43;;;;;;;;;;5028578;28;20585;-80
2023/08/07 05:19:59;;;;;;;3.77;2.43;;;;;;;;;;5028425;28;20206;-82
2023/08/07 05:22:25;;;;;;;5.57;2.53;;;;;;;;;;5033065;28;20355;-80
2023/08/07 05:24:52;;;;;;;4.27;2.63;;;;;;;;;;5013286;28;20570;-78
2023/08/07 05:27:18;;;;;;;4.57;2.40;;;;;;;;;;5027244;28;20176;-79
2023/08/07 05:29:44;;;;;;;5.60;2.70;;;;;;;;;;5029983;28;20546;-80
2023/08/07 05:32:11;;;;;;;3.93;2.40;;;;;;;;;;5029757;28;20248;-78
2023/08/07 05:34:38;;;;;;;4.63;2.03;;;;;;;;;;5028697;28;20587;-80
2023/08/07 05:37:04;;;;;;;8.70;3.00;;;;;;;;;;5028338;28;20182;-79
2023/08/07 05:39:30;;;;;;;4.40;2.30;;;;;;;;;;5021411;28;20198;-82
2023/08/07 05:41:57;;;;;;;4.03;2.33;;;;;;;;;;5028592;28;20262;-79
2023/08/07 05:44:24;;;;;;;6.43;2.70;;;;;;;;;;4995082;28;20178;-79
2023/08/07 05:46:50;;;;;;;6.67;2.57;;;;;;;;;;5011126;28;20240;-79
2023/08/07 05:49:16;;;;;;;3.33;2.27;;;;;;;;;;5032128;28;20182;-79
2023/08/07 05:51:42;;;;;;;5.47;2.60;;;;;;;;;;5023170;28;20183;-79
2023/08/07 05:54:08;;;;;;;6.80;2.63;;;;;;;;;;5021762;28;20207;-79
2023/08/07 05:56:35;;;;;;;5.90;2.80;;;;;;;;;;5019648;28;20194;-78
2023/08/07 05:59:01;;;;;;;5.17;2.30;;;;;;;;;;5026843;28;20272;-79
2023/08/07 06:01:30;;;;;;;4.00;2.30;;;;;;;;;;5029576;28;20214;-77
2023/08/07 06:03:57;;;;;;;6.10;2.60;;;;;;;;;;5021816;28;20218;-78
2023/08/07 06:06:23;;;;;;;3.93;2.40;;;;;;;;;;5022345;28;20962;-78
2023/08/07 06:08:49;;;;;;;4.00;2.30;;;;;;;;;;5030996;28;20663;-77
2023/08/07 06:11:15;;;;;;;4.43;2.53;;;;;;;;;;5025057;28;20186;-77
2023/08/07 06:13:42;;;;;;;5.43;2.63;;;;;;;;;;5031734;28;20546;-77
2023/08/07 06:16:08;;;;;;;6.63;2.40;;;;;;;;;;5014109;28;20190;-77
2023/08/07 06:18:34;;;;;;;4.67;2.70;;;;;;;;;;5023274;28;20191;-77
2023/08/07 06:21:00;;;;;;;4.50;2.30;;;;;;;;;;5026538;28;20195;-77
2023/08/07 06:23:27;;;;;;;4.50;2.37;;;;;;;;;;5057725;22;20786;-86
2023/08/07 06:25:53;;;;;;;4.27;2.30;;;;;;;;;;5019060;28;20200;-86
2023/08/07 06:28:19;;;;;;;6.00;2.27;;;;;;;;;;5033806;28;20663;-86
2023/08/07 06:30:45;;;;;;;5.70;2.60;;;;;;;;;;5020404;28;20188;-87
2023/08/07 06:33:11;;;;;;;5.27;2.20;;;;;;;;;;5050737;28;20209;-86
2023/08/07 06:35:42;;;;;;;4.63;2.57;;;;;;;;;;5016754;28;20199;-86
2023/08/07 06:38:08;;;;;;;6.37;2.80;;;;;;;;;;5024623;28;20217;-87
2023/08/07 06:40:38;;;;;;;3.87;2.40;;;;;;;;;;5018549;28;20221;-86
2023/08/07 06:43:04;;;;;;;4.93;2.37;;;;;;;;;;5027329;28;20206;-86
2023/08/07 06:45:31;;;;;;;4.73;2.53;;;;;;;;;;5000782;28;20644;-86
2023/08/07 06:47:57;;;;;;;5.00;2.40;;;;;;;;;;5002698;28;20289;-86
2023/08/07 06:50:24;;;;;;;3.63;2.57;;;;;;;;;;5013962;28;20564;-87
2023/08/07 06:52:50;;;;;;;5.37;2.47;;;;;;;;;;4999411;28;20300;-86
2023/08/07 06:55:17;;;;;;;5.87;2.40;;;;;;;;;;5003944;28;20687;-87
2023/08/07 06:57:43;;;;;;;4.30;2.23;;;;;;;;;;5006488;28;20183;-86
2023/08/07 07:00:10;;;;;;;7.07;2.50;;;;;;;;;;5044400;28;20202;-87
2023/08/07 07:02:37;;;;;;;4.73;2.60;;;;;;;;;;5016539;28;20699;-86
2023/08/07 07:05:04;;;;;;;4.47;2.63;;;;;;;;;;5040347;28;20219;-86
2023/08/07 07:07:31;;;;;;;2.97;2.40;;;;;;;;;;5047297;28;20262;-87
2023/08/07 07:10:00;;;;;;;5.03;2.73;;;;;;;;;;5013350;28;20201;-87
2023/08/07 07:12:26;;;;;;;6.53;2.50;;;;;;;;;;5018337;28;20213;-86
2023/08/07 07:14:52;;;;;;;5.20;2.50;;;;;;;;;;5016951;28;20191;-87
2023/08/07 07:17:19;;;;;;;5.70;2.60;;;;;;;;;;5018204;28;20297;-88
2023/08/07 07:19:45;;;;;;;8.03;2.60;;;;;;;;;;5018239;28;20195;-86
2023/08/07 07:22:11;;;;;;;4.50;2.50;;;;;;;;;;5018691;28;20611;-87
2023/08/07 07:24:38;;;;;;;4.37;2.80;;;;;;;;;;5013905;28;20244;-86
2023/08/07 07:27:04;;;;;;;5.43;3.00;;;;;;;;;;5032403;28;20187;-87
2023/08/07 07:29:31;;;;;;;6.30;2.80;;;;;;;;;;5025882;28;20190;-86
2023/08/07 07:31:57;;;;;;;4.77;2.70;;;;;;;;;;5035848;28;20214;-86
2023/08/07 07:34:23;;;;;;;8.47;2.57;;;;;;;;;;5018695;28;20403;-86
2023/08/07 07:36:50;;;;;;;5.97;2.47;;;;;;;;;;5014453;28;20217;-87
2023/08/07 07:39:17;;;;;;;6.37;2.57;;;;;;;;;;4996666;28;20560;-88
2023/08/07 07:41:44;;;;;;;5.90;2.60;;;;;;;;;;5037982;28;20220;-86
2023/08/07 07:44:10;;;;;;;5.90;2.50;;;;;;;;;;5015532;28;20222;-86
2023/08/07 07:46:36;;;;;;;4.60;2.40;;;;;;;;;;5015103;28;20191;-86
2023/08/07 07:49:04;;;;;;;4.03;2.30;;;;;;;;;;5003199;28;20194;-86
2023/08/07 07:51:31;;;;;;;4.47;2.33;;;;;;;;;;5035789;28;20209;-87
2023/08/07 07:53:58;;;;;;;5.13;2.30;;;;;;;;;;5008512;28;20243;-86
2023/08/07 07:56:24;;;;;;;4.83;2.30;;;;;;;;;;5016331;28;20534;-86
2023/08/07 07:58:50;;;;;;;4.90;2.43;;;;;;;;;;5005429;28;20198;-86
2023/08/07 08:01:17;;;;;;;4.03;1.90;;;;;;;;;;5005579;28;20296;-87
2023/08/07 08:03:44;;;;;;;3.57;2.10;;;;;;;;;;5030205;28;20213;-86
2023/08/07 08:06:12;;;;;;;4.60;2.33;;;;;;;;;;5021298;28;20680;-87
2023/08/07 08:08:38;;;;;;;4.67;2.40;;;;;;;;;;5017503;28;20195;-86
2023/08/07 08:11:04;;;;;;;4.97;2.40;;;;;;;;;;5021937;28;20240;-87
2023/08/07 08:13:31;;;;;;;4.07;2.30;;;;;;;;;;5023106;28;20215;-87
2023/08/07 08:15:57;;;;;;;5.20;2.50;;;;;;;;;;4997161;28;20306;-87
2023/08/07 08:18:23;;;;;;;6.10;2.30;;;;;;;;;;5034878;28;20260;-87
2023/08/07 08:20:49;;;;;;;3.87;2.50;;;;;;;;;;5039922;28;20289;-87
2023/08/07 08:23:15;;;;;;;3.97;2.57;;;;;;;;;;4989727;28;20226;-87
2023/08/07 08:25:41;;;;;;;3.57;2.47;;;;;;;;;;4995033;28;20650;-87
2023/08/07 08:28:08;;;;;;;6.27;2.73;;;;;;;;;;5018870;28;20191;-87
2023/08/07 08:30:34;;;;;;;6.03;2.63;;;;;;;;;;5030131;28;20194;-86
2023/08/07 08:33:00;;;;;;;6.10;3.00;;;;;;;;;;5031294;28;20206;-86
2023/08/07 08:35:27;;;;;;;4.90;2.70;;;;;;;;;;5030907;28;20178;-87
2023/08/07 08:37:53;;;;;;;5.13;2.70;;;;;;;;;;5011987;28;20197;-88
2023/08/07 08:40:19;;;;;;;4.23;2.60;;;;;;;;;;4997372;28;20203;-87
2023/08/07 08:42:46;;;;;;;6.63;2.80;;;;;;;;;;5026816;28;20202;-87
2023/08/07 08:45:14;;;;;;;5.83;2.73;;;;;;;;;;5001646;28;20195;-86
2023/08/07 08:47:41;;;;;;;6.10;2.80;;;;;;;;;;5002020;28;20185;-87
2023/08/07 08:50:09;;;;;;;5.83;2.40;;;;;;;;;;5013172;28;20187;-86
2023/08/07 08:52:37;;;;;;;4.97;2.60;;;;;;;;;;5016560;28;20241;-86
2023/08/07 08:55:03;;;;;;;4.53;2.50;;;;;;;;;;5013733;28;20613;-86
2023/08/07 08:57:30;;;;;;;5.47;2.43;;;;;;;;;;5021696;28;20233;-86
2023/08/07 09:00:10;;;;;;;4.17;2.60;;;;;;;;;;5037388;28;20206;-85
2023/08/07 09:02:36;;;;;;;3.53;2.80;;;;;;;;;;4996596;28;20216;-86
2023/08/07 09:05:03;;;;;;;5.67;2.57;;;;;;;;;;5002489;28;20205;-85
2023/08/07 09:07:30;;;;;;;4.20;2.47;;;;;;;;;;5018294;28;20633;-85
2023/08/07 09:09:56;;;;;;;3.93;2.30;;;;;;;;;;5034096;28;20194;-85
2023/08/07 09:12:26;;;;;;;5.03;2.50;;;;;;;;;;5026625;28;20767;-85
2023/08/07 09:14:57;;;;;;;4.30;2.37;;;;;;;;;;5022549;28;20194;-86
2023/08/07 09:17:29;;;;;;;4.33;2.40;;;;;;;;;;5013757;28;20205;-86
2023/08/07 09:19:55;;;;;;;7.23;2.57;;;;;;;;;;5024874;28;20202;-86
2023/08/07 09:22:22;;;;;;;5.27;2.37;;;;;;;;;;5010072;28;20202;-86
2023/08/07 09:24:49;;;;;;;5.80;2.37;;;;;;;;;;5015139;28;20191;-86
2023/08/07 09:27:16;;;;;;;5.47;2.83;;;;;;;;;;5029287;28;20576;-86
2023/08/07 09:29:44;;;;;;;6.60;2.73;;;;;;;;;;5013367;28;20828;-85
2023/08/07 09:32:12;;;;;;;3.27;2.40;;;;;;;;;;4996314;28;20262;-85
2023/08/07 09:34:42;;;;;;;4.77;2.60;;;;;;;;;;5013418;28;20198;-85
2023/08/07 09:37:11;;;;;;;4.97;2.50;;;;;;;;;;5043751;28;20427;-85
2023/08/07 09:39:37;;;;;;;5.90;2.50;;;;;;;;;;5005131;28;20213;-85
2023/08/07 09:42:04;;;;;;;4.57;2.40;;;;;;;;;;5026028;28;20191;-86
2023/08/07 09:44:37;;;;;;;4.53;2.40;;;;;;;;;;5023774;28;20558;-85
2023/08/07 09:47:13;;;;;;;4.33;2.27;;;;;;;;;;5015538;28;20195;-86
2023/08/07 09:49:40;;;;;;;5.67;2.53;;;;;;;;;;5042281;28;20181;-86
2023/08/07 09:52:09;;;;;;;7.00;2.60;;;;;;;;;;5039437;28;20207;-85
2023/08/07 09:54:37;;;;;;;4.07;2.53;;;;;;;;;;5015425;28;20286;-85
2023/08/07 09:57:03;;;;;;;4.47;2.57;;;;;;;;;;5026077;28;20209;-85
2023/08/07 09:59:30;;;;;;;5.00;2.67;;;;;;;;;;5021896;28;20559;-86
2023/08/07 10:01:56;;;;;;;6.20;2.60;;;;;;;;;;5016617;28;20209;-86
2023/08/07 10:04:22;;;;;;;4.40;2.40;;;;;;;;;;5037508;28;20676;-86
2023/08/07 10:06:49;;;;;;;3.93;2.13;;;;;;;;;;5016457;28;20187;-88
2023/08/07 10:09:16;;;;;;;5.30;2.40;;;;;;;;;;5014797;28;20186;-86
2023/08/07 10:11:42;;;;;;;5.77;2.80;;;;;;;;;;5012786;28;20187;-86
2023/08/07 10:14:13;;;;;;;5.40;2.67;;;;;;;;;;5014387;28;20218;-85
2023/08/07 10:16:41;;;;;;;4.23;2.37;;;;;;;;;;5013822;28;20195;-86
2023/08/07 10:19:08;;;;;;;5.30;2.93;;;;;;;;;;5030439;28;20193;-85
2023/08/07 10:21:36;;;;;;;4.13;2.60;;;;;;;;;;5044246;28;20251;-86
2023/08/07 10:24:04;;;;;;;5.07;2.93;;;;;;;;;;5015049;28;20325;-85
2023/08/07 10:26:31;;;;;;;5.43;2.80;;;;;;;;;;4998886;28;20186;-85
2023/08/07 10:28:57;;;;;;;6.47;3.20;;;;;;;;;;5031368;28;20265;-87
2023/08/07 10:31:24;;;;;;;6.33;3.10;;;;;;;;;;5020965;28;20257;-86
2023/08/07 10:33:51;;;;;;;4.40;2.50;;;;;;;;;;4998805;28;20853;-84
2023/08/07 10:36:17;;;;;;;4.00;2.90;;;;;;;;;;5020217;28;20194;-86
2023/08/07 10:38:43;;;;;;;5.43;2.70;;;;;;;;;;5034796;28;20185;-85
2023/08/07 10:41:10;;;;;;;7.03;2.67;;;;;;;;;;5037358;28;20316;-85
2023/08/07 10:43:41;;;;;;;3.53;2.67;;;;;;;;;;5021207;28;20236;-85
2023/08/07 10:46:11;;;;;;;3.97;2.60;;;;;;;;;;5003378;28;20221;-85
2023/08/07 10:48:44;;;;;;;3.87;2.50;;;;;;;;;;5028863;28;20332;-85
2023/08/07 10:51:12;;;;;;;3.87;2.67;;;;;;;;;;5043788;28;20231;-85
2023/08/07 10:53:44;;;;;;;5.70;2.50;;;;;;;;;;5039077;28;20309;-85
2023/08/07 10:56:11;;;;;;;5.80;2.70;;;;;;;;;;5028862;28;20194;-86
2023/08/07 10:58:38;;;;;;;4.60;3.00;;;;;;;;;;5015087;28;20193;-85
2023/08/07 11:01:21;;;;;;;5.07;2.83;;;;;;;;;;5031951;28;20634;-86
2023/08/07 11:03:51;;;;;;;4.97;2.67;;;;;;;;;;5021042;28;20331;-85
2023/08/07 11:06:18;;;;;;;2.93;2.00;;;;;;;;;;5002900;28;20652;-86
2023/08/07 11:08:45;;;;;;;5.23;2.80;;;;;;;;;;5027997;28;20206;-86
2023/08/07 11:11:11;;;;;;;3.97;2.70;;;;;;;;;;5028726;28;20190;-85
2023/08/07 11:13:37;;;;;;;4.93;3.07;;;;;;;;;;5013302;28;20289;-85
2023/08/07 11:16:04;;;;;;;7.13;3.00;;;;;;;;;;5044446;28;20208;-86
2023/08/07 11:18:32;;;;;;;5.07;3.10;;;;;;;;;;5001948;28;20194;-85
2023/08/07 11:20:58;;;;;;;7.20;3.10;;;;;;;;;;5019650;28;20198;-86
2023/08/07 11:23:25;;;;;;;4.97;2.90;;;;;;;;;;5041406;28;20216;-86
2023/08/07 11:25:55;;;;;;;5.90;3.10;;;;;;;;;;5014113;28;20189;-86
2023/08/07 11:28:22;;;;;;;5.10;2.80;;;;;;;;;;5030429;28;20534;-86
2023/08/07 11:30:53;;;;;;;5.17;2.67;;;;;;;;;;5029888;28;20251;-85
2023/08/07 11:33:19;;;;;;;4.90;2.77;;;;;;;;;;4993779;28;20223;-87
2023/08/07 11:35:46;;;;;;;5.20;2.93;;;;;;;;;;5013048;28;20275;-86
2023/08/07 11:38:13;;;;;;;6.50;3.00;;;;;;;;;;5014076;28;20692;-85
2023/08/07 11:40:39;;;;;;;5.73;2.80;;;;;;;;;;5022372;28;20211;-86
2023/08/07 11:43:05;;;;;;;5.47;3.10;;;;;;;;;;5047593;28;20236;-86
2023/08/07 11:45:31;;;;;;;5.43;3.13;;;;;;;;;;5048083;28;20186;-86
2023/08/07 11:47:59;;;;;;;5.13;2.97;;;;;;;;;;5027714;28;20182;-86
2023/08/07 11:50:25;;;;;;;5.10;3.07;;;;;;;;;;5037522;28;20205;-86
2023/08/07 11:52:51;;;;;;;6.77;3.40;;;;;;;;;;5005410;28;20234;-86
2023/08/07 11:55:18;;;;;;;5.63;3.27;;;;;;;;;;5027732;28;20273;-86
2023/08/07 11:57:46;;;;;;;5.83;3.60;;;;;;;;;;5018984;28;20239;-86
2023/08/07 12:00:13;;;;;;;6.20;3.80;;;;;;;;;;5004566;28;20229;-86
2023/08/07 12:02:46;;;;;;;5.60;3.67;;;;;;;;;;5014756;28;20233;-86
2023/08/07 12:05:12;;;;;;;6.00;3.80;;;;;;;;;;5029429;28;20564;-86
2023/08/07 12:07:39;;;;;;;6.73;3.93;;;;;;;;;;5017326;28;20174;-86
2023/08/07 12:10:09;;;;;;;6.37;3.53;;;;;;;;;;5010225;28;20194;-86
2023/08/07 12:12:39;;;;;;;5.70;3.77;;;;;;;;;;5019796;28;20210;-86
2023/08/07 12:15:09;;;;;;;8.90;4.13;;;;;;;;;;5038849;28;20192;-86
2023/08/07 12:17:38;;;;;;;6.97;3.77;;;;;;;;;;5003629;28;20193;-87
2023/08/07 12:20:10;;;;;;;6.57;4.30;;;;;;;;;;5036149;28;20261;-86
2023/08/07 12:22:37;;;;;;;9.00;3.93;;;;;;;;;;5031509;22;20248;-75
2023/08/07 12:25:03;;;;;;;7.13;4.10;;;;;;;;;;5049034;28;20183;-76
2023/08/07 12:27:30;;;;;;;5.57;3.80;;;;;;;;;;5015122;28;20201;-75
2023/08/07 12:29:56;;;;;;;4.83;3.57;;;;;;;;;;5031123;28;20657;-75
2023/08/07 12:32:22;;;;;;;4.73;3.70;;;;;;;;;;5048679;28;20194;-76
2023/08/07 12:34:50;;;;;;;8.07;3.63;;;;;;;;;;5032820;28;20183;-75
2023/08/07 12:37:16;;;;;;;5.60;3.57;;;;;;;;;;5029151;28;20650;-76
2023/08/07 12:39:42;;;;;;;6.53;3.30;;;;;;;;;;5029142;28;20177;-75
2023/08/07 12:42:08;;;;;;;5.43;3.50;;;;;;;;;;5010872;28;20705;-76
2023/08/07 12:44:35;;;;;;;6.80;3.67;;;;;;;;;;5028805;28;20179;-76
2023/08/07 12:47:01;;;;;;;5.33;3.17;;;;;;;;;;5011096;28;20643;-76
2023/08/07 12:49:27;;;;;;;7.70;3.00;;;;;;;;;;5011324;28;20186;-75
2023/08/07 12:51:55;;;;;;;3.43;2.83;;;;;;;;;;5028916;28;20206;-75
2023/08/07 12:54:22;;;;;;;6.47;3.27;;;;;;;;;;5029510;28;20674;-76
2023/08/07 12:56:48;;;;;;;5.83;3.07;;;;;;;;;;5029273;28;20182;-76
2023/08/07 12:59:14;;;;;;;4.23;2.87;;;;;;;;;;4995317;28;20281;-76
2023/08/07 13:01:40;;;;;;;5.33;2.67;;;;;;;;;;5019086;28;20206;-76
2023/08/07 13:04:08;;;;;;;4.97;3.03;;;;;;;;;;5023084;28;20182;-76
2023/08/07 13:06:34;;;;;;;5.80;2.93;;;;;;;;;;5028590;28;20731;-76
2023/08/07 13:09:00;;;;;;;5.47;2.70;;;;;;;;;;5010868;28;20225;-76
2023/08/07 13:11:27;;;;;;;5.13;3.03;;;;;;;;;;4994460;28;20182;-76
2023/08/07 13:13:53;;;;;;;4.83;3.07;;;;;;;;;;5028002;28;20206;-76
2023/08/07 13:16:19;;;;;;;4.77;3.00;;;;;;;;;;5010389;28;20198;-76
2023/08/07 13:18:45;;;;;;;4.47;3.03;;;;;;;;;;5022730;28;20221;-76
2023/08/07 13:21:12;;;;;;;3.73;2.80;;;;;;;;;;5010112;28;20690;-76
2023/08/07 13:23:38;;;;;;;4.93;2.70;;;;;;;;;;5034821;28;20275;-76
2023/08/07 13:26:05;;;;;;;3.90;2.50;;;;;;;;;;5031615;28;20182;-76
2023/08/07 13:28:31;;;;;;;4.67;2.40;;;;;;;;;;5031650;28;20194;-76
2023/08/07 13:30:58;;;;;;;3.47;2.40;;;;;;;;;;4997359;28;20193;-76
2023/08/07 13:33:24;;;;;;;3.37;2.73;;;;;;;;;;5031861;28;20214;-76
2023/08/07 13:35:51;;;;;;;4.50;2.57;;;;;;;;;;5030818;28;20190;-75
2023/08/07 13:38:18;;;;;;;5.20;2.30;;;;;;;;;;5030971;28;20181;-74
2023/08/07 13:40:45;;;;;;;4.70;2.40;;;;;;;;;;5031602;28;20208;-75
2023/08/07 13:43:11;;;;;;;4.53;2.43;;;;;;;;;;5013520;28;20309;-75
2023/08/07 13:45:37;;;;;;;3.73;2.40;;;;;;;;;;5014177;28;20277;-75
2023/08/07 13:48:06;;;;;;;3.70;2.40;;;;;;;;;;5031410;28;20526;-74
2023/08/07 13:50:32;;;;;;;3.63;2.20;;;;;;;;;;5031778;28;20182;-75
2023/08/07 13:52:58;;;;;;;5.83;2.50;;;;;;;;;;5014453;28;20678;-74
2023/08/07 13:55:24;;;;;;;2.90;2.00;;;;;;;;;;4998661;28;20521;-74
2023/08/07 13:57:50;;;;;;;3.80;2.30;;;;;;;;;;5014968;28;20178;-74
2023/08/07 14:00:17;;;;;;;4.27;2.40;;;;;;;;;;4998747;28;20556;-74
2023/08/07 14:02:43;;;;;;;3.27;2.20;;;;;;;;;;5032263;28;20218;-75
2023/08/07 14:05:09;;;;;;;3.40;2.07;;;;;;;;;;4981937;28;20543;-80
2023/08/07 14:07:36;;;;;;;2.67;2.00;;;;;;;;;;4997569;28;20182;-78
2023/08/07 14:10:02;;;;;;;4.13;1.93;;;;;;;;;;4998842;28;20186;-80
2023/08/07 14:12:29;;;;;;;2.97;2.00;;;;;;;;;;5014674;28;20314;-75
2023/08/07 14:14:55;;;;;;;2.93;2.00;;;;;;;;;;5013882;28;20178;-75
2023/08/07 14:17:21;;;;;;;3.80;1.90;;;;;;;;;;4997290;28;20175;-75
2023/08/07 14:19:47;;;;;;;2.67;2.20;;;;;;;;;;4997515;28;20196;-75
2023/08/07 14:22:13;;;;;;;3.00;2.10;;;;;;;;;;5031026;28;20198;-75
2023/08/07 14:24:39;;;;;;;2.77;2.07;;;;;;;;;;5030812;28;20190;-75
2023/08/07 14:27:06;;;;;;;3.60;2.10;;;;;;;;;;5013062;28;20182;-77
2023/08/07 14:29:32;;;;;;;4.73;2.07;;;;;;;;;;5029661;28;20184;-75
2023/08/07 14:31:58;;;;;;;2.43;1.90;;;;;;;;;;5030843;28;20201;-75
2023/08/07 14:34:24;;;;;;;4.57;2.23;;;;;;;;;;5029576;28;20185;-75
2023/08/07 14:36:51;;;;;;;3.73;2.30;;;;;;;;;;5029560;28;20185;-75
2023/08/07 14:39:18;;;;;;;3.97;2.20;;;;;;;;;;5030665;28;20721;-75
2023/08/07 14:41:44;;;;;;;3.87;2.20;;;;;;;;;;5030562;28;20584;-75